Time;durP1;ratioP1;P1;durP2;ratioP2;P2;SDS_P1;SDS_P2;PMS_P1;PMS_P2;Temp;Humidity;BMP_temperature;BMP_pressure;BME280_temperature;BME280_humidity;BME280_pressure;Samples;Min_cycle;Max_cycle;Signal;HPM_P1;HPM_P2
2023/12/28 00:02:20;;;;;;;6.38;5.55;;;5.40;1.00;;;;;;5106105;27;20331;-79
2023/12/28 00:04:49;;;;;;;7.72;5.55;;;5.40;1.00;;;;;;5105699;27;20323;-79
2023/12/28 00:07:15;;;;;;;7.70;5.45;;;5.30;1.00;;;;;;5105994;27;20250;-75
2023/12/28 00:09:43;;;;;;;6.78;5.70;;;5.40;1.00;;;;;;5108883;27;20370;-77
2023/12/28 00:12:10;;;;;;;6.75;5.30;;;5.40;1.00;;;;;;5107971;27;20233;-77
2023/12/28 00:14:36;;;;;;;6.85;6.05;;;5.40;1.00;;;;;;5104162;27;20268;-77
2023/12/28 00:17:04;;;;;;;7.40;5.35;;;5.40;1.00;;;;;;5103586;27;20895;-77
2023/12/28 00:19:31;;;;;;;7.78;5.47;;;5.40;1.00;;;;;;5105761;27;20660;-76
2023/12/28 00:21:59;;;;;;;5.93;5.03;;;5.40;1.00;;;;;;5107897;27;20746;-78
2023/12/28 00:24:26;;;;;;;6.03;5.28;;;5.40;1.00;;;;;;5108397;27;20249;-77
2023/12/28 00:26:53;;;;;;;7.50;5.07;;;5.40;1.00;;;;;;5107969;27;20267;-75
2023/12/28 00:29:20;;;;;;;5.72;4.72;;;5.50;1.00;;;;;;5106146;27;20281;-77
2023/12/28 00:31:46;;;;;;;5.15;4.65;;;5.50;1.00;;;;;;5107511;27;20665;-76
2023/12/28 00:34:14;;;;;;;7.93;5.25;;;5.50;1.00;;;;;;5110068;27;20668;-74
2023/12/28 00:36:41;;;;;;;6.32;5.35;;;5.50;1.00;;;;;;5107702;27;20268;-77
2023/12/28 00:39:09;;;;;;;7.20;5.45;;;5.60;1.00;;;;;;5109181;27;20665;-79
2023/12/28 00:41:36;;;;;;;5.65;4.47;;;5.60;1.00;;;;;;5104587;27;20230;-80
2023/12/28 00:44:05;;;;;;;5.50;4.60;;;5.60;1.00;;;;;;5107039;27;20352;-71
2023/12/28 00:46:32;;;;;;;5.40;4.68;;;5.60;1.00;;;;;;5104687;27;20245;-71
2023/12/28 00:48:58;;;;;;;5.47;4.80;;;5.60;1.00;;;;;;5103517;27;20241;-72
2023/12/28 00:51:25;;;;;;;6.75;4.55;;;5.60;1.00;;;;;;5109913;27;20333;-73
2023/12/28 00:53:52;;;;;;;5.60;4.95;;;5.60;1.00;;;;;;5108633;27;20232;-70
2023/12/28 00:56:21;;;;;;;6.93;4.30;;;5.60;1.00;;;;;;5109673;27;20271;-77
2023/12/28 00:58:48;;;;;;;5.03;4.45;;;5.60;1.00;;;;;;5111891;27;20239;-71
2023/12/28 01:01:16;;;;;;;5.32;4.82;;;5.60;1.00;;;;;;5110925;27;20236;-70
2023/12/28 01:03:43;;;;;;;6.50;4.65;;;5.50;1.00;;;;;;5110160;27;20724;-73
2023/12/28 01:06:10;;;;;;;5.35;4.75;;;5.50;1.00;;;;;;5108999;27;20236;-72
2023/12/28 01:08:37;;;;;;;5.75;4.75;;;5.50;1.00;;;;;;5113003;27;20321;-70
2023/12/28 01:11:04;;;;;;;5.70;4.80;;;5.60;1.00;;;;;;5107235;27;20327;-72
2023/12/28 01:13:33;;;;;;;5.63;4.20;;;5.60;1.00;;;;;;5104433;27;20319;-72
2023/12/28 01:16:00;;;;;;;4.97;4.57;;;5.60;1.00;;;;;;5107551;27;20537;-76
2023/12/28 01:18:27;;;;;;;4.68;4.10;;;5.60;1.00;;;;;;5108435;27;20539;-72
2023/12/28 01:20:54;;;;;;;5.05;4.38;;;5.50;1.00;;;;;;5108474;27;20302;-71
2023/12/28 01:23:20;;;;;;;5.50;4.57;;;5.50;1.00;;;;;;5107054;27;20327;-72
2023/12/28 01:25:47;;;;;;;7.03;4.23;;;5.50;1.00;;;;;;5107728;27;20560;-75
2023/12/28 01:28:14;;;;;;;5.80;5.18;;;5.50;1.00;;;;;;5103998;27;20910;-72
2023/12/28 01:30:45;;;;;;;5.03;4.53;;;5.50;1.00;;;;;;5107431;27;20239;-72
2023/12/28 01:33:12;;;;;;;7.07;4.68;;;5.40;1.00;;;;;;5111684;27;20238;-75
2023/12/28 01:35:39;;;;;;;6.60;4.70;;;5.50;1.00;;;;;;5108207;27;20313;-72
2023/12/28 01:38:06;;;;;;;6.22;4.53;;;5.50;1.00;;;;;;5111021;27;20256;-73
2023/12/28 01:40:33;;;;;;;5.60;4.30;;;5.40;1.00;;;;;;5108670;27;20318;-71
2023/12/28 01:43:00;;;;;;;6.25;4.50;;;5.40;1.00;;;;;;5109579;27;20298;-72
2023/12/28 01:45:39;;;;;;;4.60;4.20;;;5.60;1.00;;;;;;5107367;27;20329;-73
2023/12/28 01:48:08;;;;;;;6.10;4.13;;;5.60;1.00;;;;;;5107224;27;20443;-72
2023/12/28 01:50:35;;;;;;;6.43;4.68;;;5.50;1.00;;;;;;5107736;27;20240;-71
2023/12/28 01:53:02;;;;;;;4.35;3.85;;;5.50;1.00;;;;;;5106413;27;20332;-71
2023/12/28 01:55:30;;;;;;;9.17;5.00;;;5.50;1.00;;;;;;5107215;27;20261;-71
2023/12/28 01:57:58;;;;;;;5.97;4.80;;;5.50;1.00;;;;;;5107891;27;22197;-73
2023/12/28 02:00:25;;;;;;;6.03;3.85;;;5.50;1.00;;;;;;5109875;27;20525;-73
2023/12/28 02:02:54;;;;;;;4.10;3.70;;;5.50;1.00;;;;;;5112248;27;20331;-72
2023/12/28 02:05:22;;;;;;;4.40;3.57;;;5.50;1.00;;;;;;5113122;27;20475;-77
2023/12/28 02:07:49;;;;;;;5.82;3.53;;;5.50;1.00;;;;;;5114506;27;20551;-75
2023/12/28 02:10:16;;;;;;;6.32;4.10;;;5.60;1.00;;;;;;5114822;27;20242;-75
2023/12/28 02:12:44;;;;;;;4.22;3.70;;;5.60;1.00;;;;;;5112710;27;21025;-78
2023/12/28 02:15:11;;;;;;;4.07;3.40;;;5.60;1.00;;;;;;5114115;27;20238;-75
2023/12/28 02:17:48;;;;;;;5.43;3.55;;;5.60;1.00;;;;;;5108081;27;20536;-76
2023/12/28 02:20:16;;;;;;;4.00;3.33;;;5.70;1.00;;;;;;5113213;27;20240;-75
2023/12/28 02:22:45;;;;;;;9.57;7.20;;;5.70;1.00;;;;;;5112670;27;20318;-77
2023/12/28 02:25:14;;;;;;;10.55;7.10;;;5.80;1.00;;;;;;5111946;27;21227;-75
2023/12/28 02:27:42;;;;;;;8.25;5.05;;;5.90;1.00;;;;;;5114102;27;20238;-78
2023/12/28 02:30:11;;;;;;;4.47;4.03;;;5.90;1.00;;;;;;5112128;27;20248;-78
2023/12/28 02:32:48;;;;;;;4.50;3.83;;;6.00;1.00;;;;;;5109787;27;20270;-77
2023/12/28 02:35:19;;;;;;;7.07;3.80;;;6.10;1.00;;;;;;5112974;27;20509;-78
2023/12/28 02:37:52;;;;;;;5.07;3.70;;;6.20;1.00;;;;;;5112303;27;20463;-76
2023/12/28 02:40:22;;;;;;;5.40;3.23;;;6.30;1.00;;;;;;5110015;27;20483;-78
2023/12/28 02:42:49;;;;;;;5.63;3.60;;;6.50;1.00;;;;;;5113725;27;21223;-78
2023/12/28 02:45:16;;;;;;;3.93;3.43;;;6.60;1.00;;;;;;5111037;27;21199;-76
2023/12/28 02:47:44;;;;;;;3.70;3.20;;;6.80;1.00;;;;;;5112595;27;20513;-77
2023/12/28 02:50:11;;;;;;;4.70;2.90;;;6.90;1.00;;;;;;5113824;27;20436;-77
2023/12/28 02:52:38;;;;;;;2.93;2.63;;;7.00;1.00;;;;;;5109655;27;20446;-78
2023/12/28 02:55:06;;;;;;;3.20;2.37;;;7.10;1.00;;;;;;5110488;27;20492;-77
2023/12/28 02:57:37;;;;;;;4.07;2.90;;;7.20;1.00;;;;;;5113936;27;20495;-76
2023/12/28 03:00:08;;;;;;;3.70;2.20;;;7.40;1.00;;;;;;5110216;27;20494;-75
2023/12/28 03:02:35;;;;;;;2.63;2.43;;;7.50;1.00;;;;;;5108738;27;21230;-76
2023/12/28 03:05:02;;;;;;;3.30;2.30;;;7.60;1.00;;;;;;5108187;27;20515;-72
2023/12/28 03:07:29;;;;;;;4.30;2.13;;;7.70;1.00;;;;;;5106677;27;20466;-73
2023/12/28 03:09:59;;;;;;;2.30;2.10;;;7.80;1.00;;;;;;5107150;27;20453;-72
2023/12/28 03:12:26;;;;;;;4.03;2.50;;;7.90;1.00;;;;;;5103449;27;20512;-72
2023/12/28 03:14:54;;;;;;;3.10;2.33;;;8.00;1.00;;;;;;5108306;27;20465;-73
2023/12/28 03:17:21;;;;;;;2.53;2.33;;;8.10;1.00;;;;;;5104785;27;20488;-72
2023/12/28 03:19:47;;;;;;;2.27;2.00;;;8.10;1.00;;;;;;5106640;27;20476;-75
2023/12/28 03:22:15;;;;;;;2.30;1.90;;;8.20;1.00;;;;;;5108367;27;20472;-72
2023/12/28 03:24:42;;;;;;;2.83;2.23;;;8.30;1.00;;;;;;5109722;27;21127;-73
2023/12/28 03:27:09;;;;;;;2.63;1.90;;;8.40;1.00;;;;;;5106849;27;20537;-71
2023/12/28 03:29:36;;;;;;;2.60;2.40;;;8.50;1.00;;;;;;5109298;27;21369;-72
2023/12/28 03:32:05;;;;;;;2.77;2.53;;;8.60;1.00;;;;;;5108947;27;20516;-71
2023/12/28 03:34:32;;;;;;;4.50;2.20;;;8.70;1.00;;;;;;5109436;27;20468;-75
2023/12/28 03:36:59;;;;;;;2.27;2.07;;;8.70;1.00;;;;;;5105507;27;20929;-72
2023/12/28 03:39:26;;;;;;;2.47;2.13;;;8.80;1.00;;;;;;5108761;27;20974;-72
2023/12/28 03:41:55;;;;;;;2.20;2.00;;;8.90;1.00;;;;;;5109464;27;20490;-71
2023/12/28 03:44:22;;;;;;;2.13;1.93;;;9.00;1.00;;;;;;5108911;27;21800;-73
2023/12/28 03:46:49;;;;;;;2.80;1.73;;;9.00;1.00;;;;;;5106952;27;20464;-72
2023/12/28 03:49:19;;;;;;;3.37;2.07;;;9.00;1.00;;;;;;5106922;27;20418;-74
2023/12/28 03:51:50;;;;;;;2.30;1.97;;;9.00;1.00;;;;;;5111476;27;20940;-73
2023/12/28 03:54:17;;;;;;;3.10;2.23;;;8.80;1.00;;;;;;5106124;27;20500;-73
2023/12/28 03:56:45;;;;;;;2.90;2.17;;;8.40;1.00;;;;;;5106389;27;20488;-72
2023/12/28 03:59:12;;;;;;;1.93;1.73;;;8.10;1.00;;;;;;5109800;27;20468;-72
2023/12/28 04:01:39;;;;;;;3.20;2.40;;;7.80;1.00;;;;;;5097816;27;20449;-73
2023/12/28 04:04:06;;;;;;;2.97;2.37;;;7.60;1.00;;;;;;5105997;27;20473;-72
2023/12/28 04:06:35;;;;;;;2.87;2.00;;;7.50;1.00;;;;;;5107083;27;20450;-72
2023/12/28 04:09:02;;;;;;;3.00;2.10;;;7.40;1.00;;;;;;5110160;27;21007;-75
2023/12/28 04:11:29;;;;;;;2.87;2.03;;;7.30;1.00;;;;;;5107253;27;20458;-73
2023/12/28 04:13:56;;;;;;;2.90;2.50;;;7.30;1.00;;;;;;5104817;27;20976;-73
2023/12/28 04:16:23;;;;;;;2.77;2.20;;;7.30;1.00;;;;;;5111352;27;20461;-75
2023/12/28 04:18:49;;;;;;;2.67;2.10;;;7.30;1.00;;;;;;5111162;27;20499;-77
2023/12/28 04:21:16;;;;;;;2.40;2.20;;;7.20;1.00;;;;;;5108827;27;20503;-76
2023/12/28 04:23:44;;;;;;;2.30;2.10;;;7.20;1.00;;;;;;5111237;27;20468;-77
2023/12/28 04:26:11;;;;;;;3.37;2.30;;;7.30;1.00;;;;;;5114072;27;20522;-74
2023/12/28 04:28:38;;;;;;;2.97;2.27;;;7.30;1.00;;;;;;5096568;27;20541;-76
2023/12/28 04:31:06;;;;;;;2.90;2.60;;;7.30;1.00;;;;;;5112289;27;20469;-75
2023/12/28 04:33:33;;;;;;;2.93;2.10;;;7.30;1.00;;;;;;5113998;27;20583;-77
2023/12/28 04:36:03;;;;;;;2.40;2.20;;;7.40;1.00;;;;;;5117888;27;20495;-77
2023/12/28 04:38:31;;;;;;;2.30;2.10;;;7.50;1.00;;;;;;5111780;27;20465;-78
2023/12/28 04:41:00;;;;;;;1.97;1.77;;;7.50;1.00;;;;;;5114664;27;20454;-78
2023/12/28 04:43:27;;;;;;;2.97;2.37;;;7.60;1.00;;;;;;5111927;27;20508;-77
2023/12/28 04:45:54;;;;;;;4.63;2.20;;;7.70;1.00;;;;;;5115096;27;20489;-79
2023/12/28 04:48:23;;;;;;;2.40;2.03;;;7.80;1.00;;;;;;5116350;27;21258;-78
2023/12/28 04:50:52;;;;;;;1.70;1.50;;;7.90;1.00;;;;;;5115883;27;20457;-78
2023/12/28 04:53:19;;;;;;;2.40;2.13;;;8.10;1.00;;;;;;5112802;27;20487;-79
2023/12/28 04:55:46;;;;;;;3.10;2.07;;;8.10;1.00;;;;;;5114869;27;20474;-78
2023/12/28 04:58:15;;;;;;;5.27;2.50;;;8.20;1.00;;;;;;5115356;27;21162;-78
2023/12/28 05:00:42;;;;;;;3.00;2.10;;;8.20;1.00;;;;;;5110242;27;21217;-77
2023/12/28 05:03:08;;;;;;;2.37;2.03;;;8.30;1.00;;;;;;5111484;27;21237;-78
2023/12/28 05:05:35;;;;;;;2.23;2.03;;;8.40;1.00;;;;;;5111017;27;20465;-77
2023/12/28 05:08:02;;;;;;;3.67;2.00;;;8.40;1.00;;;;;;5115852;27;20490;-76
2023/12/28 05:10:29;;;;;;;2.23;2.03;;;8.50;1.00;;;;;;5113182;27;20474;-76
2023/12/28 05:12:57;;;;;;;3.53;2.00;;;8.50;1.00;;;;;;5109577;27;20489;-77
2023/12/28 05:15:25;;;;;;;2.60;2.20;;;8.50;1.00;;;;;;5112210;27;20597;-76
2023/12/28 05:17:52;;;;;;;2.30;2.10;;;8.60;1.00;;;;;;5110500;27;20469;-75
2023/12/28 05:20:19;;;;;;;4.33;2.73;;;8.60;1.00;;;;;;5112496;27;20466;-77
2023/12/28 05:22:46;;;;;;;3.93;2.10;;;8.60;1.00;;;;;;5113622;27;21318;-78
2023/12/28 05:25:13;;;;;;;2.67;2.43;;;8.70;1.00;;;;;;5112282;27;20457;-72
2023/12/28 05:27:42;;;;;;;1.90;1.80;;;8.70;1.00;;;;;;5111893;27;20461;-72
2023/12/28 05:30:10;;;;;;;2.87;2.23;;;8.80;1.00;;;;;;5112156;27;20497;-72
2023/12/28 05:32:39;;;;;;;2.60;2.40;;;8.90;1.00;;;;;;5115684;27;21408;-71
2023/12/28 05:35:07;;;;;;;2.50;1.93;;;9.00;1.00;;;;;;5109067;27;20469;-72
2023/12/28 05:37:34;;;;;;;2.50;1.97;;;9.00;1.00;;;;;;5110496;27;20462;-73
2023/12/28 05:40:01;;;;;;;2.37;1.73;;;9.00;1.00;;;;;;5111449;27;20492;-72
2023/12/28 05:42:28;;;;;;;2.70;2.20;;;9.00;1.00;;;;;;5108081;27;20551;-76
2023/12/28 05:44:55;;;;;;;2.20;2.00;;;9.10;1.00;;;;;;5107838;27;20446;-72
2023/12/28 05:47:22;;;;;;;2.57;2.37;;;9.10;1.00;;;;;;5105688;27;20490;-72
2023/12/28 05:49:51;;;;;;;2.30;2.10;;;9.10;1.00;;;;;;5111744;27;20569;-73
2023/12/28 05:52:18;;;;;;;2.97;2.20;;;9.10;1.00;;;;;;5106020;27;20454;-73
2023/12/28 05:54:47;;;;;;;2.50;2.20;;;9.10;1.00;;;;;;5091251;27;20454;-72
2023/12/28 05:57:14;;;;;;;2.73;1.93;;;9.10;1.00;;;;;;5114243;27;20482;-72
2023/12/28 05:59:41;;;;;;;2.87;2.63;;;9.00;1.00;;;;;;5111956;27;20962;-74
2023/12/28 06:02:08;;;;;;;5.50;2.97;;;9.00;1.00;;;;;;5109701;27;20473;-73
2023/12/28 06:04:36;;;;;;;7.37;3.50;;;9.00;1.00;;;;;;5108002;27;20573;-72
2023/12/28 06:07:05;;;;;;;3.43;3.10;;;9.00;1.00;;;;;;5112562;27;20466;-75
2023/12/28 06:09:32;;;;;;;4.33;2.53;;;9.00;1.00;;;;;;5107038;27;20446;-73
2023/12/28 06:11:59;;;;;;;3.67;2.30;;;9.00;1.00;;;;;;5109410;27;20497;-72
2023/12/28 06:14:26;;;;;;;1.83;1.73;;;9.10;1.00;;;;;;5106502;27;20487;-73
2023/12/28 06:16:53;;;;;;;2.00;1.90;;;9.10;1.00;;;;;;5109158;27;20597;-72
2023/12/28 06:19:20;;;;;;;2.20;1.70;;;9.10;1.00;;;;;;5108083;27;20545;-72
2023/12/28 06:21:47;;;;;;;2.57;1.80;;;9.10;1.00;;;;;;5110508;27;20820;-73
2023/12/28 06:24:16;;;;;;;2.37;2.13;;;9.10;1.00;;;;;;5110552;27;20801;-72
2023/12/28 06:26:43;;;;;;;4.50;2.03;;;9.20;1.00;;;;;;5105251;27;20544;-73
2023/12/28 06:29:10;;;;;;;2.67;2.10;;;9.20;1.00;;;;;;5107877;27;20536;-73
2023/12/28 06:31:37;;;;;;;2.33;2.10;;;9.30;1.00;;;;;;5109256;27;21322;-72
2023/12/28 06:34:04;;;;;;;2.37;2.17;;;9.20;1.00;;;;;;5110881;27;20461;-72
2023/12/28 06:36:31;;;;;;;2.50;2.17;;;9.30;1.00;;;;;;5110605;27;20540;-72
2023/12/28 06:38:59;;;;;;;3.17;2.10;;;9.30;1.00;;;;;;5110151;27;20458;-72
2023/12/28 06:41:28;;;;;;;2.90;2.30;;;9.30;1.00;;;;;;5109206;27;20566;-69
2023/12/28 06:43:58;;;;;;;3.13;2.50;;;9.30;1.00;;;;;;5113845;27;20454;-71
2023/12/28 06:46:25;;;;;;;2.93;2.10;;;9.40;1.00;;;;;;5106847;27;20465;-72
2023/12/28 06:48:52;;;;;;;2.57;2.37;;;9.40;1.00;;;;;;5108624;27;20573;-72
2023/12/28 06:51:20;;;;;;;2.83;2.10;;;9.40;1.00;;;;;;5108234;27;20574;-71
2023/12/28 06:53:47;;;;;;;2.93;2.33;;;9.40;1.00;;;;;;5110765;27;20480;-71
2023/12/28 06:56:14;;;;;;;3.53;2.83;;;9.40;1.00;;;;;;5109826;27;20881;-75
2023/12/28 06:58:42;;;;;;;2.60;2.40;;;9.40;1.00;;;;;;5112498;27;20492;-73
2023/12/28 07:01:10;;;;;;;2.63;2.17;;;9.30;1.00;;;;;;5112890;27;20515;-73
2023/12/28 07:03:38;;;;;;;1.97;1.70;;;9.30;1.00;;;;;;5109787;27;20458;-71
2023/12/28 07:06:07;;;;;;;3.03;2.03;;;9.30;1.00;;;;;;5109000;27;20894;-74
2023/12/28 07:08:43;;;;;;;2.50;1.97;;;9.30;1.00;;;;;;5103190;27;21104;-73
2023/12/28 07:11:11;;;;;;;2.50;2.03;;;9.30;1.00;;;;;;5102889;27;20462;-72
2023/12/28 07:13:38;;;;;;;2.70;2.00;;;9.20;1.00;;;;;;5105207;27;20553;-73
2023/12/28 07:16:08;;;;;;;2.70;2.30;;;9.20;1.00;;;;;;5103927;27;20571;-72
2023/12/28 07:18:35;;;;;;;2.23;1.90;;;9.20;1.00;;;;;;5106444;27;20472;-72
2023/12/28 07:21:02;;;;;;;3.60;3.30;;;9.20;1.00;;;;;;5103740;27;21228;-75
2023/12/28 07:23:30;;;;;;;3.60;2.47;;;9.20;1.00;;;;;;5107882;27;20545;-72
2023/12/28 07:25:58;;;;;;;4.30;2.60;;;9.20;1.00;;;;;;5105550;27;20888;-71
2023/12/28 07:28:25;;;;;;;2.50;2.30;;;9.20;1.00;;;;;;5105136;27;21995;-70
2023/12/28 07:30:54;;;;;;;3.30;2.13;;;9.10;1.00;;;;;;5104259;27;20457;-71
2023/12/28 07:33:21;;;;;;;3.40;2.40;;;9.00;1.00;;;;;;5106435;27;20466;-71
2023/12/28 07:35:48;;;;;;;3.30;2.37;;;9.00;1.00;;;;;;5107743;27;20473;-71
2023/12/28 07:38:15;;;;;;;2.53;2.17;;;9.00;1.00;;;;;;5106398;27;20494;-74
2023/12/28 07:40:42;;;;;;;2.53;2.33;;;9.00;1.00;;;;;;5104254;27;20524;-72
2023/12/28 07:43:11;;;;;;;4.00;2.20;;;8.90;1.00;;;;;;5104614;27;20461;-74
2023/12/28 07:45:38;;;;;;;2.97;2.57;;;9.00;1.00;;;;;;5094624;27;20498;-77
2023/12/28 07:48:07;;;;;;;4.97;2.47;;;9.00;1.00;;;;;;5087300;28;20490;-79
2023/12/28 07:50:34;;;;;;;3.60;2.10;;;9.00;1.00;;;;;;5104632;27;20504;-78
2023/12/28 07:53:01;;;;;;;5.73;3.47;;;9.00;1.00;;;;;;5109327;27;20423;-78
2023/12/28 07:55:28;;;;;;;3.03;2.13;;;9.00;1.00;;;;;;5104785;27;20957;-78
2023/12/28 07:57:55;;;;;;;3.43;2.50;;;9.10;1.00;;;;;;5106398;27;20463;-78
2023/12/28 08:00:23;;;;;;;5.27;2.20;;;9.10;1.00;;;;;;5105900;27;20970;-80
2023/12/28 08:02:52;;;;;;;2.20;2.00;;;9.10;1.00;;;;;;5093631;27;20470;-77
2023/12/28 08:05:19;;;;;;;2.60;2.23;;;9.10;1.00;;;;;;5084074;27;20485;-75
2023/12/28 08:07:47;;;;;;;4.47;2.20;;;9.20;1.00;;;;;;5087865;27;20476;-79
2023/12/28 08:10:14;;;;;;;2.63;2.43;;;9.20;1.00;;;;;;5106426;27;20456;-78
2023/12/28 08:12:42;;;;;;;4.20;2.57;;;9.30;1.00;;;;;;5094623;27;20517;-75
2023/12/28 08:15:10;;;;;;;18.97;16.97;;;9.30;1.00;;;;;;5092647;27;20549;-78
2023/12/28 08:17:39;;;;;;;4.07;2.60;;;9.40;1.00;;;;;;5106017;27;20494;-78
2023/12/28 08:20:07;;;;;;;2.40;2.20;;;9.40;1.00;;;;;;5078547;27;21044;-77
2023/12/28 08:22:34;;;;;;;3.90;2.77;;;9.40;1.00;;;;;;5085085;28;20593;-77
2023/12/28 08:25:01;;;;;;;3.00;2.37;;;9.40;1.00;;;;;;5093882;28;20958;-77
2023/12/28 08:27:28;;;;;;;2.43;1.97;;;9.50;1.00;;;;;;5091540;28;20581;-77
2023/12/28 08:29:55;;;;;;;3.47;2.30;;;9.60;1.00;;;;;;5093770;27;20519;-78
2023/12/28 08:32:22;;;;;;;2.60;2.40;;;9.60;1.00;;;;;;5093210;27;20952;-79
2023/12/28 08:34:53;;;;;;;2.87;2.57;;;9.70;1.00;;;;;;5092309;27;20452;-77
2023/12/28 08:37:21;;;;;;;2.60;2.40;;;9.70;1.00;;;;;;5092007;27;20503;-76
2023/12/28 08:39:48;;;;;;;2.80;2.00;;;9.70;1.00;;;;;;5093426;27;20557;-77
2023/12/28 08:42:15;;;;;;;2.50;2.30;;;9.80;1.00;;;;;;5094726;28;20504;-78
2023/12/28 08:44:45;;;;;;;2.57;2.20;;;9.80;1.00;;;;;;5089550;27;20995;-77
2023/12/28 08:47:12;;;;;;;2.50;2.30;;;9.80;1.00;;;;;;5090725;27;20541;-76
2023/12/28 08:49:41;;;;;;;3.10;2.07;;;9.80;1.00;;;;;;5091928;27;20458;-78
2023/12/28 08:52:10;;;;;;;3.20;2.20;;;9.70;1.00;;;;;;5075467;27;20550;-77
2023/12/28 08:54:37;;;;;;;3.30;2.70;;;9.80;1.00;;;;;;5090376;27;20517;-77
2023/12/28 08:57:04;;;;;;;2.40;2.20;;;9.70;1.00;;;;;;5087305;27;20554;-72
2023/12/28 08:59:31;;;;;;;3.40;2.93;;;9.80;1.00;;;;;;5088023;28;20451;-72
2023/12/28 09:01:57;;;;;;;5.07;2.40;;;9.80;1.00;;;;;;5088952;27;20463;-74
2023/12/28 09:04:25;;;;;;;2.97;2.50;;;9.90;1.00;;;;;;5092472;28;20453;-73
2023/12/28 09:06:53;;;;;;;3.30;2.70;;;9.90;1.00;;;;;;5092710;27;20581;-72
2023/12/28 09:09:21;;;;;;;2.83;2.53;;;9.90;1.00;;;;;;5072961;28;20489;-73
2023/12/28 09:11:48;;;;;;;3.63;2.80;;;9.90;1.00;;;;;;5089672;27;20459;-71
2023/12/28 09:14:15;;;;;;;3.20;2.90;;;9.90;1.00;;;;;;5085353;27;21018;-75
2023/12/28 09:16:43;;;;;;;2.93;2.50;;;9.90;1.00;;;;;;5064239;27;20483;-71
2023/12/28 09:19:11;;;;;;;3.13;2.60;;;9.80;1.00;;;;;;5075597;27;20542;-71
2023/12/28 09:21:38;;;;;;;2.97;2.67;;;9.80;1.00;;;;;;5091294;27;20466;-74
2023/12/28 09:24:06;;;;;;;2.77;2.53;;;9.70;1.00;;;;;;5090607;28;21680;-71
2023/12/28 09:26:35;;;;;;;3.37;2.83;;;9.70;1.00;;;;;;5092200;27;20465;-72
2023/12/28 09:29:02;;;;;;;3.77;2.87;;;9.70;1.00;;;;;;5092643;28;20542;-71
2023/12/28 09:31:29;;;;;;;3.73;2.77;;;9.80;1.00;;;;;;5090329;27;20497;-71
2023/12/28 09:33:56;;;;;;;4.00;2.50;;;9.80;1.00;;;;;;5085663;27;20551;-71
2023/12/28 09:36:23;;;;;;;3.47;2.93;;;9.80;1.00;;;;;;5089078;27;20466;-70
2023/12/28 09:38:51;;;;;;;3.70;2.83;;;9.80;1.00;;;;;;5093211;27;20455;-71
2023/12/28 09:41:22;;;;;;;4.63;3.00;;;9.80;1.00;;;;;;5092244;27;20423;-72
2023/12/28 09:43:55;;;;;;;2.57;2.30;;;9.80;1.00;;;;;;5072440;28;20494;-73
2023/12/28 09:46:23;;;;;;;3.43;3.13;;;9.70;1.00;;;;;;5070439;28;20467;-74
2023/12/28 09:48:53;;;;;;;3.03;2.73;;;9.80;1.00;;;;;;5071562;28;20451;-74
2023/12/28 09:51:21;;;;;;;2.83;2.63;;;9.70;1.00;;;;;;5082778;28;20487;-73
2023/12/28 09:53:48;;;;;;;2.93;2.60;;;9.80;1.00;;;;;;5090175;27;21132;-71
2023/12/28 09:56:16;;;;;;;3.57;3.23;;;9.80;1.00;;;;;;5075566;28;20467;-71
2023/12/28 09:58:45;;;;;;;2.93;2.73;;;9.70;1.00;;;;;;5073508;27;20456;-72
2023/12/28 10:01:15;;;;;;;4.30;3.30;;;9.80;1.00;;;;;;5071736;28;20462;-74
2023/12/28 10:03:43;;;;;;;4.83;3.40;;;9.80;1.00;;;;;;5090689;28;20439;-71
2023/12/28 10:06:10;;;;;;;6.10;3.50;;;9.80;1.00;;;;;;5088294;27;20506;-71
2023/12/28 10:08:37;;;;;;;4.67;3.03;;;9.80;1.00;;;;;;5089625;27;20524;-72
2023/12/28 10:11:05;;;;;;;4.40;3.23;;;9.80;1.00;;;;;;5084318;27;20491;-72
2023/12/28 10:13:36;;;;;;;3.57;3.23;;;9.80;1.00;;;;;;5072566;28;20558;-71
2023/12/28 10:16:05;;;;;;;4.10;3.70;;;9.80;1.00;;;;;;5085095;27;20880;-71
2023/12/28 10:18:33;;;;;;;4.13;3.20;;;9.90;1.00;;;;;;5089519;28;20481;-74
2023/12/28 10:21:00;;;;;;;3.53;3.20;;;9.90;1.00;;;;;;5092925;27;20546;-72
2023/12/28 10:23:28;;;;;;;4.80;3.10;;;10.20;1.00;;;;;;5082596;28;20962;-71
2023/12/28 10:25:57;;;;;;;3.17;2.87;;;10.40;1.00;;;;;;5105148;27;21006;-71
2023/12/28 10:28:25;;;;;;;4.50;3.70;;;10.50;1.00;;;;;;5089770;27;20470;-70
2023/12/28 10:30:56;;;;;;;3.07;2.73;;;10.70;1.00;;;;;;5088132;28;21899;-74
2023/12/28 10:33:23;;;;;;;5.83;3.10;;;10.80;1.00;;;;;;5088873;28;20498;-72
2023/12/28 10:35:52;;;;;;;4.30;2.87;;;10.80;1.00;;;;;;5077156;28;20466;-71
2023/12/28 10:38:20;;;;;;;3.80;2.60;;;11.00;1.00;;;;;;5089688;27;20508;-74
2023/12/28 10:40:48;;;;;;;2.77;2.57;;;11.60;1.00;;;;;;5078854;27;20459;-73
2023/12/28 10:43:17;;;;;;;3.80;2.93;;;11.80;1.00;;;;;;5073485;27;20500;-70
2023/12/28 10:45:48;;;;;;;6.80;4.93;;;11.70;1.00;;;;;;5098302;27;20438;-73
2023/12/28 10:48:16;;;;;;;3.33;3.03;;;12.00;1.00;;;;;;5082054;27;20444;-72
2023/12/28 10:50:47;;;;;;;3.40;3.10;;;12.40;1.00;;;;;;5081518;27;21063;-71
2023/12/28 10:53:38;;;;;;;3.10;2.80;;;13.00;1.00;;;;;;5087276;28;20456;-71
2023/12/28 10:56:19;;;;;;;4.03;2.80;;;13.20;1.00;;;;;;5083586;28;20571;-72
2023/12/28 10:58:50;;;;;;;4.47;3.43;;;12.90;1.00;;;;;;5073040;27;20446;-74
2023/12/28 11:01:23;;;;;;;3.10;2.80;;;12.50;1.00;;;;;;5080419;27;21026;-70
2023/12/28 11:03:59;;;;;;;3.23;2.93;;;12.40;1.00;;;;;;5081138;27;20464;-70
2023/12/28 11:06:28;;;;;;;3.10;2.80;;;12.60;1.00;;;;;;5086635;28;20482;-73
2023/12/28 11:08:59;;;;;;;3.37;2.90;;;12.60;1.00;;;;;;5087362;28;20534;-72
2023/12/28 11:11:27;;;;;;;2.70;2.50;;;13.20;1.00;;;;;;5088334;28;20974;-71
2023/12/28 11:13:56;;;;;;;4.10;3.53;;;13.90;1.00;;;;;;5090008;28;20455;-72
2023/12/28 11:16:23;;;;;;;4.40;3.50;;;14.40;1.00;;;;;;5087547;27;20484;-73
2023/12/28 11:18:53;;;;;;;3.10;2.80;;;15.40;1.00;;;;;;5085280;28;21018;-73
2023/12/28 11:21:20;;;;;;;3.80;3.47;;;15.70;1.00;;;;;;5090900;27;20973;-73
2023/12/28 11:23:48;;;;;;;3.20;3.00;;;15.60;1.00;;;;;;5089455;27;20453;-71
2023/12/28 11:26:21;;;;;;;3.80;2.83;;;15.20;1.00;;;;;;5089591;27;20488;-74
2023/12/28 11:28:48;;;;;;;4.33;2.67;;;14.40;1.00;;;;;;5078566;28;20548;-72
2023/12/28 11:31:15;;;;;;;3.17;2.87;;;13.90;1.00;;;;;;5085197;28;20553;-72
2023/12/28 11:33:46;;;;;;;5.33;3.20;;;13.60;1.00;;;;;;5086182;27;21033;-71
2023/12/28 11:36:23;;;;;;;5.00;2.87;;;13.10;1.00;;;;;;5090154;27;20898;-72
2023/12/28 11:38:54;;;;;;;3.00;2.80;;;12.40;1.00;;;;;;5078350;28;20940;-72
2023/12/28 11:41:22;;;;;;;3.30;2.40;;;12.20;1.00;;;;;;5086217;27;20898;-70
2023/12/28 11:43:54;;;;;;;6.87;2.67;;;12.10;1.00;;;;;;5068910;27;20451;-74
2023/12/28 11:46:21;;;;;;;2.73;2.47;;;12.20;1.00;;;;;;5070430;28;20471;-73
2023/12/28 11:48:48;;;;;;;5.23;3.10;;;12.30;1.00;;;;;;5069642;28;20549;-72
2023/12/28 11:51:16;;;;;;;3.47;2.90;;;12.30;1.00;;;;;;5084973;27;20448;-73
2023/12/28 11:53:46;;;;;;;5.30;3.43;;;12.30;1.00;;;;;;5076136;27;20527;-74
2023/12/28 11:56:17;;;;;;;2.50;2.30;;;13.10;1.00;;;;;;5072619;28;20976;-75
2023/12/28 11:58:47;;;;;;;4.80;3.80;;;14.20;1.00;;;;;;5072295;27;20460;-72
2023/12/28 12:01:14;;;;;;;2.90;2.70;;;15.20;1.00;;;;;;5078281;27;20489;-75
2023/12/28 12:03:41;;;;;;;4.00;3.53;;;15.80;1.00;;;;;;5093315;27;20470;-72
2023/12/28 12:06:08;;;;;;;3.00;2.70;;;16.40;1.00;;;;;;5094001;27;21036;-71
2023/12/28 12:08:36;;;;;;;3.70;2.73;;;17.10;1.00;;;;;;5092156;27;20637;-72
2023/12/28 12:11:05;;;;;;;4.70;3.00;;;17.60;1.00;;;;;;5091628;27;20562;-72
2023/12/28 12:13:37;;;;;;;4.10;3.60;;;17.10;1.00;;;;;;5076609;28;20985;-71
2023/12/28 12:16:05;;;;;;;3.07;2.80;;;16.70;1.00;;;;;;5092616;27;20470;-72
2023/12/28 12:18:33;;;;;;;5.33;3.20;;;16.40;1.00;;;;;;5090178;27;20459;-72
2023/12/28 12:21:00;;;;;;;3.10;2.80;;;16.30;1.00;;;;;;5090833;28;20555;-71
2023/12/28 12:23:27;;;;;;;4.87;2.67;;;16.90;1.00;;;;;;5090914;27;20958;-71
2023/12/28 12:25:55;;;;;;;2.70;2.50;;;17.60;1.00;;;;;;5079609;27;20468;-71
2023/12/28 12:28:22;;;;;;;3.03;2.40;;;17.70;1.00;;;;;;5069320;28;20546;-72
2023/12/28 12:30:55;;;;;;;5.47;3.00;;;17.80;1.00;;;;;;5070883;27;20473;-72
2023/12/28 12:33:26;;;;;;;2.87;2.60;;;18.00;1.00;;;;;;5074962;27;20475;-73
2023/12/28 12:35:53;;;;;;;3.07;2.77;;;18.20;1.00;;;;;;5087996;27;20556;-72
2023/12/28 12:38:21;;;;;;;2.63;2.43;;;17.80;1.00;;;;;;5088406;27;20516;-72
2023/12/28 12:40:47;;;;;;;3.73;2.53;;;17.20;1.00;;;;;;5090094;27;20544;-71
2023/12/28 12:43:15;;;;;;;3.37;2.60;;;17.00;1.00;;;;;;5082820;27;20535;-69
2023/12/28 12:45:42;;;;;;;4.97;2.90;;;16.90;1.00;;;;;;5071080;27;20463;-74
2023/12/28 12:48:09;;;;;;;2.67;2.47;;;17.40;1.00;;;;;;5090339;27;20647;-70
2023/12/28 12:50:38;;;;;;;5.90;2.63;;;17.40;1.00;;;;;;5088858;28;20466;-72
2023/12/28 12:53:06;;;;;;;5.30;3.40;;;17.70;1.00;;;;;;5091426;27;20452;-74
2023/12/28 12:55:33;;;;;;;2.53;2.17;;;18.50;1.00;;;;;;5075015;27;20563;-71
2023/12/28 12:58:00;;;;;;;2.70;2.10;;;18.60;1.00;;;;;;5089817;27;20518;-70
2023/12/28 13:00:28;;;;;;;3.00;2.70;;;18.70;1.00;;;;;;5089323;28;20475;-71
2023/12/28 13:02:56;;;;;;;3.17;2.50;;;18.00;1.00;;;;;;5093457;27;20506;-70
2023/12/28 13:05:25;;;;;;;2.83;2.53;;;17.20;1.00;;;;;;5089740;27;20965;-72
2023/12/28 13:07:53;;;;;;;3.00;2.13;;;16.70;1.00;;;;;;5092418;28;20991;-71
2023/12/28 13:10:20;;;;;;;2.83;2.30;;;17.20;1.00;;;;;;5088901;27;20459;-71